x

Cedar Key, Fl (cdrf1) Weather Station

11:00am - Fri 1st Aug 2014 All times are EDT. -4 hours from GMT.

  • Wind
    6mph, 8mph gusts
  • Air Temp 83°f
  • Sea Pressure 1016.6mb
  • Cedar Key, Fl
  • Cedar Key, Fl

More Historic Weather Station data

Upgrade to MSW Pro to gain access to the past 30 days of data for over 8000 Wavebouys and Weather Stations around the globe.

Join Pro

Comparision Forecast

View Surf forecast
   
Fri 08/01 11:00am 6 8 mph 1016.6mb 83f
10:00am 5 7 mph 1016.3mb 82f
9:00am 3 5 mph 1016.1mb 79f
8:00am 3 5 mph 1015.6mb 79f
7:00am 2 3 mph 1015.4mb 77f
6:00am 2
mph
1014.8mb 77f
5:00am 2 3 mph 1014.3mb 77f
4:00am 3 5 mph 1014.4mb 77f
3:00am 5 6 mph 1014.5mb 78f
2:00am 1 2 mph 1015.2mb 77f
1:00am 2 3 mph 1015.7mb 78f
12:00am 2 5 mph 1015.8mb 83f
Thu 07/31 11:00pm 6 9 mph 1015.7mb 83f
10:00pm 6 8 mph 1015.5mb 84f
9:00pm 9 11 mph 1015.3mb 84f
8:00pm 6 9 mph 1015.3mb 85f
7:00pm 13 16 mph 1014.8mb 86f
6:00pm 7 9 mph 1015mb 87f
5:00pm 10 15 mph 1015.1mb 87f
4:00pm 9 15 mph 1015.3mb 87f
3:00pm 8 11 mph 1015.7mb 87f
2:00pm 7 10 mph 1016.3mb 86f
1:00pm 6 8 mph 1016.4mb 86f
12:00pm 3 5 mph 1016.6mb 84f
11:00am 3 5 mph 1016.3mb 85f
10:00am 6 7 mph 1016.3mb 83f
9:00am 5 6 mph 1016.2mb 79f
8:00am 6 7 mph 1016mb 76f
7:00am 5 6 mph 1015.5mb 75f
6:00am 3
mph
1015mb 76f
5:00am 1 3 mph 1014.7mb 76f
4:00am 3
mph
1014.8mb 77f
3:00am 3
mph
1015mb 78f
2:00am 3 6 mph 1015.2mb 78f
1:00am 3 6 mph 1015.6mb 78f
12:00am 5 8 mph 1015.9mb 79f
Wed 07/30 11:00pm 5 7 mph 1016mb 83f
10:00pm 5 7 mph 1015.7mb 83f
9:00pm 6 9 mph 1015.1mb 83f
8:00pm 9 14 mph 1015.1mb 85f
7:00pm 8 11 mph 1014.6mb 86f
6:00pm 7 11 mph 1014.6mb 86f
5:00pm 11 15 mph 1014.6mb 86f
4:00pm 11 15 mph 1014.9mb 87f
3:00pm 6 9 mph 1015.5mb 86f
2:00pm 6 9 mph 1015.9mb 86f
1:00pm 8 11 mph 1016.3mb 85f
12:00pm 2 3 mph 1016.5mb 85f
11:00am 3
mph
1016.4mb 82f
10:00am 3 5 mph 1016.2mb 81f
9:00am 6 7 mph 1015.9mb 77f
8:00am 7 10 mph 1015.6mb 76f
7:00am 7 9 mph 1015.2mb 76f
6:00am 8 10 mph 1014.8mb 76f
5:00am 6 8 mph 1014.4mb 76f
4:00am 5 7 mph 1014.5mb 78f
3:00am 5 7 mph 1014.7mb 79f
2:00am 5 7 mph 1014.8mb 80f
1:00am 5 6 mph 1015mb 81f
12:00am 5 7 mph 1015mb 83f
Tue 07/29 11:00pm 7 9 mph 1014.9mb 84f
10:00pm 5 6 mph 1014.9mb 85f
9:00pm 5 7 mph 1014.3mb 85f
8:00pm 5 6 mph 1013.5mb 85f
7:00pm 6 11 mph 1013.3mb 86f
6:00pm 10 15 mph 1013.6mb 85f
5:00pm 10 14 mph 1013.8mb 86f
4:00pm 13 17 mph 1014.1mb 86f
3:00pm 10 17 mph 1014.5mb 85f
2:00pm 7 8 mph 1014.8mb 84f
1:00pm 8 11 mph 1014.8mb 84f
12:00pm 7 9 mph 1015.3mb 83f
11:00am 6 7 mph 1015.2mb 80f
10:00am 13 16 mph 1015.2mb 80f
9:00am 16 24 mph 1014.3mb 81f
8:00am 8 11 mph 1014.3mb 76f
7:00am 7 10 mph 1014mb 76f
6:00am 10 20 mph 1013.5mb 79f
5:00am 14 20 mph 1013.3mb 85f
4:00am 11 17 mph 1013.7mb 85f
3:00am 15 21 mph 1014.3mb 85f
2:00am 15 20 mph 1014.7mb 85f
1:00am 14 20 mph 1014.6mb 85f
12:00am 13 16 mph 1014.5mb 85f
Mon 07/28 11:00pm 10 15 mph 1015.2mb 85f
10:00pm 10 16 mph 1015.5mb 85f
9:00pm 7 13 mph 1015.2mb 85f
8:00pm 14 16 mph 1015mb 85f
7:00pm 13 17 mph 1014.6mb 85f
6:00pm 14 18 mph 1014.8mb 85f
5:00pm 16 20 mph 1015.2mb 86f